sensor_id;sensor_type;location;lat;lon;timestamp;P1;durP1;ratioP1;P2;durP2;ratioP2
34892;SDS011;21106;52.240;20.902;2023-07-13T00:03:01;13.50;;;7.90;;
34892;SDS011;21106;52.240;20.902;2023-07-13T00:08:07;11.20;;;7.60;;
34892;SDS011;21106;52.240;20.902;2023-07-13T00:13:14;11.90;;;7.20;;
34892;SDS011;21106;52.240;20.902;2023-07-13T00:18:20;9.90;;;7.30;;
34892;SDS011;21106;52.240;20.902;2023-07-13T00:23:26;11.00;;;8.00;;
34892;SDS011;21106;52.240;20.902;2023-07-13T00:28:33;11.30;;;7.40;;
34892;SDS011;21106;52.240;20.902;2023-07-13T00:33:40;9.50;;;7.80;;
34892;SDS011;21106;52.240;20.902;2023-07-13T00:38:47;13.10;;;7.90;;
34892;SDS011;21106;52.240;20.902;2023-07-13T00:43:53;13.20;;;8.40;;
34892;SDS011;21106;52.240;20.902;2023-07-13T00:49:01;9.40;;;8.20;;
34892;SDS011;21106;52.240;20.902;2023-07-13T00:54:11;15.90;;;7.40;;
34892;SDS011;21106;52.240;20.902;2023-07-13T00:59:20;13.10;;;7.60;;
34892;SDS011;21106;52.240;20.902;2023-07-13T01:04:28;12.00;;;7.40;;
34892;SDS011;21106;52.240;20.902;2023-07-13T01:09:34;11.50;;;7.90;;
34892;SDS011;21106;52.240;20.902;2023-07-13T01:14:40;10.60;;;8.00;;
34892;SDS011;21106;52.240;20.902;2023-07-13T01:19:46;11.80;;;8.50;;
34892;SDS011;21106;52.240;20.902;2023-07-13T01:24:53;19.00;;;8.60;;
34892;SDS011;21106;52.240;20.902;2023-07-13T01:29:59;11.30;;;8.10;;
34892;SDS011;21106;52.240;20.902;2023-07-13T01:35:09;11.10;;;8.30;;
34892;SDS011;21106;52.240;20.902;2023-07-13T01:40:18;13.00;;;9.40;;
34892;SDS011;21106;52.240;20.902;2023-07-13T01:45:24;14.20;;;8.90;;
34892;SDS011;21106;52.240;20.902;2023-07-13T01:50:30;12.80;;;8.50;;
34892;SDS011;21106;52.240;20.902;2023-07-13T01:55:37;11.30;;;8.50;;
34892;SDS011;21106;52.240;20.902;2023-07-13T02:00:43;13.20;;;8.70;;
34892;SDS011;21106;52.240;20.902;2023-07-13T02:05:49;13.40;;;9.40;;
34892;SDS011;21106;52.240;20.902;2023-07-13T02:10:55;17.70;;;9.00;;
34892;SDS011;21106;52.240;20.902;2023-07-13T02:16:01;11.20;;;8.90;;
34892;SDS011;21106;52.240;20.902;2023-07-13T02:21:09;18.30;;;9.60;;
34892;SDS011;21106;52.240;20.902;2023-07-13T02:26:15;16.10;;;9.20;;
34892;SDS011;21106;52.240;20.902;2023-07-13T02:31:21;10.80;;;9.00;;
34892;SDS011;21106;52.240;20.902;2023-07-13T02:36:28;14.20;;;10.10;;
34892;SDS011;21106;52.240;20.902;2023-07-13T02:41:34;16.70;;;10.90;;
34892;SDS011;21106;52.240;20.902;2023-07-13T02:46:42;11.40;;;8.70;;
34892;SDS011;21106;52.240;20.902;2023-07-13T02:51:50;13.30;;;9.40;;
34892;SDS011;21106;52.240;20.902;2023-07-13T02:56:56;15.10;;;9.40;;
34892;SDS011;21106;52.240;20.902;2023-07-13T03:02:04;13.00;;;10.50;;
34892;SDS011;21106;52.240;20.902;2023-07-13T03:07:10;20.40;;;10.40;;
34892;SDS011;21106;52.240;20.902;2023-07-13T03:12:17;14.90;;;11.00;;
34892;SDS011;21106;52.240;20.902;2023-07-13T03:17:23;14.30;;;9.70;;
34892;SDS011;21106;52.240;20.902;2023-07-13T03:22:29;16.30;;;10.30;;
34892;SDS011;21106;52.240;20.902;2023-07-13T03:28:36;18.90;;;10.70;;
34892;SDS011;21106;52.240;20.902;2023-07-13T03:33:45;14.20;;;10.40;;
34892;SDS011;21106;52.240;20.902;2023-07-13T03:38:57;13.00;;;9.40;;
34892;SDS011;21106;52.240;20.902;2023-07-13T03:44:15;11.30;;;9.50;;
34892;SDS011;21106;52.240;20.902;2023-07-13T03:49:46;12.10;;;9.10;;
34892;SDS011;21106;52.240;20.902;2023-07-13T03:55:00;13.00;;;10.10;;
34892;SDS011;21106;52.240;20.902;2023-07-13T04:00:37;15.90;;;9.40;;
34892;SDS011;21106;52.240;20.902;2023-07-13T04:06:21;14.90;;;9.80;;
34892;SDS011;21106;52.240;20.902;2023-07-13T04:11:30;14.60;;;10.10;;
34892;SDS011;21106;52.240;20.902;2023-07-13T04:16:39;17.40;;;9.90;;
34892;SDS011;21106;52.240;20.902;2023-07-13T04:21:46;16.40;;;9.30;;
34892;SDS011;21106;52.240;20.902;2023-07-13T04:26:53;14.50;;;9.50;;
34892;SDS011;21106;52.240;20.902;2023-07-13T04:32:05;16.50;;;9.20;;
34892;SDS011;21106;52.240;20.902;2023-07-13T04:37:19;33.40;;;22.40;;
34892;SDS011;21106;52.240;20.902;2023-07-13T04:43:01;21.80;;;16.50;;
34892;SDS011;21106;52.240;20.902;2023-07-13T04:54:03;16.10;;;13.20;;
34892;SDS011;21106;52.240;20.902;2023-07-13T04:59:44;14.00;;;11.00;;
34892;SDS011;21106;52.240;20.902;2023-07-13T05:05:42;15.70;;;11.30;;
34892;SDS011;21106;52.240;20.902;2023-07-13T05:11:05;13.80;;;10.60;;
34892;SDS011;21106;52.240;20.902;2023-07-13T05:16:20;16.70;;;10.90;;
34892;SDS011;21106;52.240;20.902;2023-07-13T05:21:42;15.00;;;10.90;;
34892;SDS011;21106;52.240;20.902;2023-07-13T05:26:52;12.40;;;10.30;;
34892;SDS011;21106;52.240;20.902;2023-07-13T05:32:12;18.10;;;10.80;;
34892;SDS011;21106;52.240;20.902;2023-07-13T05:38:54;15.80;;;11.10;;
34892;SDS011;21106;52.240;20.902;2023-07-13T05:44:01;15.10;;;10.60;;
34892;SDS011;21106;52.240;20.902;2023-07-13T05:49:17;17.20;;;11.50;;
34892;SDS011;21106;52.240;20.902;2023-07-13T05:54:24;18.40;;;12.20;;
34892;SDS011;21106;52.240;20.902;2023-07-13T05:59:30;18.70;;;13.00;;
34892;SDS011;21106;52.240;20.902;2023-07-13T06:15:39;18.00;;;11.40;;
34892;SDS011;21106;52.240;20.902;2023-07-13T06:22:10;17.70;;;12.50;;
34892;SDS011;21106;52.240;20.902;2023-07-13T06:32:47;17.00;;;11.40;;
34892;SDS011;21106;52.240;20.902;2023-07-13T06:37:59;19.00;;;10.80;;
34892;SDS011;21106;52.240;20.902;2023-07-13T06:48:18;18.10;;;9.40;;
34892;SDS011;21106;52.240;20.902;2023-07-13T06:54:45;16.50;;;8.30;;
34892;SDS011;21106;52.240;20.902;2023-07-13T06:59:52;13.20;;;5.10;;
34892;SDS011;21106;52.240;20.902;2023-07-13T07:05:02;10.20;;;4.40;;
34892;SDS011;21106;52.240;20.902;2023-07-13T07:10:11;8.40;;;4.80;;
34892;SDS011;21106;52.240;20.902;2023-07-13T07:15:18;8.10;;;4.60;;
34892;SDS011;21106;52.240;20.902;2023-07-13T07:20:26;6.20;;;4.70;;
34892;SDS011;21106;52.240;20.902;2023-07-13T07:25:32;4.80;;;3.20;;
34892;SDS011;21106;52.240;20.902;2023-07-13T07:30:42;8.70;;;3.40;;
34892;SDS011;21106;52.240;20.902;2023-07-13T07:35:49;8.60;;;3.90;;
34892;SDS011;21106;52.240;20.902;2023-07-13T07:40:58;6.10;;;4.20;;
34892;SDS011;21106;52.240;20.902;2023-07-13T07:46:08;6.70;;;4.60;;
34892;SDS011;21106;52.240;20.902;2023-07-13T07:51:15;8.20;;;3.70;;
34892;SDS011;21106;52.240;20.902;2023-07-13T07:56:21;7.50;;;3.50;;
34892;SDS011;21106;52.240;20.902;2023-07-13T08:01:27;8.80;;;4.30;;
34892;SDS011;21106;52.240;20.902;2023-07-13T08:06:33;10.50;;;4.00;;
34892;SDS011;21106;52.240;20.902;2023-07-13T08:11:40;7.50;;;3.50;;
34892;SDS011;21106;52.240;20.902;2023-07-13T08:16:47;8.40;;;3.90;;
34892;SDS011;21106;52.240;20.902;2023-07-13T08:21:53;11.50;;;3.60;;
34892;SDS011;21106;52.240;20.902;2023-07-13T08:26:59;6.00;;;3.90;;
34892;SDS011;21106;52.240;20.902;2023-07-13T08:32:06;4.10;;;3.20;;
34892;SDS011;21106;52.240;20.902;2023-07-13T08:37:16;6.40;;;3.70;;
34892;SDS011;21106;52.240;20.902;2023-07-13T08:54:56;7.40;;;4.00;;
34892;SDS011;21106;52.240;20.902;2023-07-13T09:00:17;5.30;;;4.20;;
34892;SDS011;21106;52.240;20.902;2023-07-13T09:05:27;6.90;;;3.80;;
34892;SDS011;21106;52.240;20.902;2023-07-13T09:16:20;8.80;;;4.50;;
34892;SDS011;21106;52.240;20.902;2023-07-13T09:23:07;9.20;;;4.50;;
34892;SDS011;21106;52.240;20.902;2023-07-13T09:28:28;5.10;;;3.80;;
34892;SDS011;21106;52.240;20.902;2023-07-13T09:34:33;10.10;;;4.00;;
34892;SDS011;21106;52.240;20.902;2023-07-13T09:48:18;6.60;;;2.60;;
34892;SDS011;21106;52.240;20.902;2023-07-13T09:59:47;4.60;;;2.90;;
34892;SDS011;21106;52.240;20.902;2023-07-13T10:05:53;5.40;;;3.20;;
34892;SDS011;21106;52.240;20.902;2023-07-13T10:11:17;6.10;;;3.40;;
34892;SDS011;21106;52.240;20.902;2023-07-13T10:16:48;3.70;;;3.10;;
34892;SDS011;21106;52.240;20.902;2023-07-13T10:22:21;7.00;;;4.00;;
34892;SDS011;21106;52.240;20.902;2023-07-13T10:34:21;6.00;;;3.90;;
34892;SDS011;21106;52.240;20.902;2023-07-13T10:39:46;12.80;;;5.10;;
34892;SDS011;21106;52.240;20.902;2023-07-13T10:44:59;9.30;;;4.60;;
34892;SDS011;21106;52.240;20.902;2023-07-13T10:50:11;8.20;;;4.20;;
34892;SDS011;21106;52.240;20.902;2023-07-13T10:55:59;9.10;;;3.50;;
34892;SDS011;21106;52.240;20.902;2023-07-13T11:01:17;6.90;;;3.30;;
34892;SDS011;21106;52.240;20.902;2023-07-13T11:36:18;5.20;;;3.30;;
34892;SDS011;21106;52.240;20.902;2023-07-13T11:41:42;5.00;;;3.40;;
34892;SDS011;21106;52.240;20.902;2023-07-13T11:48:28;5.90;;;3.50;;
34892;SDS011;21106;52.240;20.902;2023-07-13T11:53:52;10.80;;;5.60;;
34892;SDS011;21106;52.240;20.902;2023-07-13T11:59:12;9.90;;;5.80;;
34892;SDS011;21106;52.240;20.902;2023-07-13T12:04:32;9.20;;;6.00;;
34892;SDS011;21106;52.240;20.902;2023-07-13T12:10:22;13.00;;;6.60;;
34892;SDS011;21106;52.240;20.902;2023-07-13T12:15:57;6.90;;;3.20;;
34892;SDS011;21106;52.240;20.902;2023-07-13T12:21:16;6.90;;;4.10;;
34892;SDS011;21106;52.240;20.902;2023-07-13T12:26:59;8.70;;;4.10;;
34892;SDS011;21106;52.240;20.902;2023-07-13T13:12:11;6.60;;;4.00;;
34892;SDS011;21106;52.240;20.902;2023-07-13T13:29:24;5.30;;;3.50;;
34892;SDS011;21106;52.240;20.902;2023-07-13T13:58:50;11.00;;;6.00;;
34892;SDS011;21106;52.240;20.902;2023-07-13T14:16:46;8.20;;;4.40;;
34892;SDS011;21106;52.240;20.902;2023-07-13T14:22:03;10.20;;;5.30;;
34892;SDS011;21106;52.240;20.902;2023-07-13T14:32:23;12.30;;;5.00;;
34892;SDS011;21106;52.240;20.902;2023-07-13T14:39:40;8.20;;;5.50;;
34892;SDS011;21106;52.240;20.902;2023-07-13T14:45:16;9.60;;;6.40;;
34892;SDS011;21106;52.240;20.902;2023-07-13T14:50:30;12.30;;;5.90;;
34892;SDS011;21106;52.240;20.902;2023-07-13T14:55:41;14.60;;;6.50;;
34892;SDS011;21106;52.240;20.902;2023-07-13T15:00:50;12.30;;;6.70;;
34892;SDS011;21106;52.240;20.902;2023-07-13T15:06:11;11.00;;;6.20;;
34892;SDS011;21106;52.240;20.902;2023-07-13T15:11:18;11.20;;;6.70;;
34892;SDS011;21106;52.240;20.902;2023-07-13T15:16:24;10.20;;;6.30;;
34892;SDS011;21106;52.240;20.902;2023-07-13T15:21:31;7.90;;;5.30;;
34892;SDS011;21106;52.240;20.902;2023-07-13T15:26:40;10.20;;;6.20;;
34892;SDS011;21106;52.240;20.902;2023-07-13T15:31:49;8.10;;;5.90;;
34892;SDS011;21106;52.240;20.902;2023-07-13T15:36:58;9.50;;;6.20;;
34892;SDS011;21106;52.240;20.902;2023-07-13T15:42:12;9.00;;;6.00;;
34892;SDS011;21106;52.240;20.902;2023-07-13T15:47:20;6.90;;;5.70;;
34892;SDS011;21106;52.240;20.902;2023-07-13T15:52:33;10.20;;;6.30;;
34892;SDS011;21106;52.240;20.902;2023-07-13T15:57:50;8.50;;;5.80;;
34892;SDS011;21106;52.240;20.902;2023-07-13T16:03:19;12.90;;;6.90;;
34892;SDS011;21106;52.240;20.902;2023-07-13T16:08:27;8.60;;;6.20;;
34892;SDS011;21106;52.240;20.902;2023-07-13T16:13:41;9.30;;;6.10;;
34892;SDS011;21106;52.240;20.902;2023-07-13T16:18:54;10.30;;;5.40;;
34892;SDS011;21106;52.240;20.902;2023-07-13T16:24:11;10.10;;;5.90;;
34892;SDS011;21106;52.240;20.902;2023-07-13T16:30:36;8.50;;;5.60;;
34892;SDS011;21106;52.240;20.902;2023-07-13T16:35:50;13.30;;;6.30;;
34892;SDS011;21106;52.240;20.902;2023-07-13T16:41:00;13.40;;;5.80;;
34892;SDS011;21106;52.240;20.902;2023-07-13T16:46:08;10.90;;;6.10;;
34892;SDS011;21106;52.240;20.902;2023-07-13T16:51:16;10.30;;;6.10;;
34892;SDS011;21106;52.240;20.902;2023-07-13T16:56:27;7.30;;;5.00;;
34892;SDS011;21106;52.240;20.902;2023-07-13T17:01:34;9.00;;;5.30;;
34892;SDS011;21106;52.240;20.902;2023-07-13T17:06:42;7.00;;;5.40;;
34892;SDS011;21106;52.240;20.902;2023-07-13T17:11:49;7.90;;;5.20;;
34892;SDS011;21106;52.240;20.902;2023-07-13T17:17:01;9.70;;;5.50;;
34892;SDS011;21106;52.240;20.902;2023-07-13T17:22:10;6.30;;;4.30;;
34892;SDS011;21106;52.240;20.902;2023-07-13T17:27:24;8.80;;;5.30;;
34892;SDS011;21106;52.240;20.902;2023-07-13T17:32:30;12.20;;;6.90;;
34892;SDS011;21106;52.240;20.902;2023-07-13T17:37:37;7.60;;;5.60;;
34892;SDS011;21106;52.240;20.902;2023-07-13T17:42:46;13.50;;;6.20;;
34892;SDS011;21106;52.240;20.902;2023-07-13T17:47:53;7.80;;;6.00;;
34892;SDS011;21106;52.240;20.902;2023-07-13T17:53:03;10.10;;;5.80;;
34892;SDS011;21106;52.240;20.902;2023-07-13T17:58:18;9.50;;;5.90;;
34892;SDS011;21106;52.240;20.902;2023-07-13T18:03:26;7.80;;;5.80;;
34892;SDS011;21106;52.240;20.902;2023-07-13T18:08:37;8.00;;;5.20;;
34892;SDS011;21106;52.240;20.902;2023-07-13T18:13:45;8.60;;;4.90;;
34892;SDS011;21106;52.240;20.902;2023-07-13T18:18:53;6.00;;;4.60;;
34892;SDS011;21106;52.240;20.902;2023-07-13T18:24:35;7.90;;;4.50;;
34892;SDS011;21106;52.240;20.902;2023-07-13T18:30:52;9.90;;;5.00;;
34892;SDS011;21106;52.240;20.902;2023-07-13T18:36:04;6.80;;;5.00;;
34892;SDS011;21106;52.240;20.902;2023-07-13T18:41:17;7.70;;;5.30;;
34892;SDS011;21106;52.240;20.902;2023-07-13T18:46:31;7.60;;;5.10;;
34892;SDS011;21106;52.240;20.902;2023-07-13T18:51:47;10.40;;;4.70;;
34892;SDS011;21106;52.240;20.902;2023-07-13T18:57:09;8.50;;;6.60;;
34892;SDS011;21106;52.240;20.902;2023-07-13T19:02:16;7.60;;;5.70;;
34892;SDS011;21106;52.240;20.902;2023-07-13T19:07:27;7.40;;;5.50;;
34892;SDS011;21106;52.240;20.902;2023-07-13T19:12:33;7.20;;;5.30;;
34892;SDS011;21106;52.240;20.902;2023-07-13T19:17:40;14.70;;;5.60;;
34892;SDS011;21106;52.240;20.902;2023-07-13T19:22:46;12.30;;;5.40;;
34892;SDS011;21106;52.240;20.902;2023-07-13T19:27:56;13.70;;;7.00;;
34892;SDS011;21106;52.240;20.902;2023-07-13T19:33:05;10.30;;;5.90;;
34892;SDS011;21106;52.240;20.902;2023-07-13T19:38:13;8.00;;;5.50;;
34892;SDS011;21106;52.240;20.902;2023-07-13T19:48:28;13.00;;;5.70;;
34892;SDS011;21106;52.240;20.902;2023-07-13T19:53:35;11.90;;;6.40;;
34892;SDS011;21106;52.240;20.902;2023-07-13T19:58:44;10.10;;;5.60;;
34892;SDS011;21106;52.240;20.902;2023-07-13T20:14:46;8.10;;;5.30;;
34892;SDS011;21106;52.240;20.902;2023-07-13T20:19:57;7.30;;;5.70;;
34892;SDS011;21106;52.240;20.902;2023-07-13T20:25:09;6.60;;;5.20;;
34892;SDS011;21106;52.240;20.902;2023-07-13T20:30:23;8.00;;;5.90;;
34892;SDS011;21106;52.240;20.902;2023-07-13T20:35:31;8.80;;;5.90;;
34892;SDS011;21106;52.240;20.902;2023-07-13T20:40:39;5.70;;;4.70;;
34892;SDS011;21106;52.240;20.902;2023-07-13T20:45:46;11.50;;;6.00;;
34892;SDS011;21106;52.240;20.902;2023-07-13T20:50:56;10.30;;;5.20;;
34892;SDS011;21106;52.240;20.902;2023-07-13T20:56:12;6.40;;;5.20;;
34892;SDS011;21106;52.240;20.902;2023-07-13T21:06:37;9.50;;;5.40;;
34892;SDS011;21106;52.240;20.902;2023-07-13T21:12:04;13.20;;;6.50;;
34892;SDS011;21106;52.240;20.902;2023-07-13T21:17:13;13.90;;;5.90;;
34892;SDS011;21106;52.240;20.902;2023-07-13T21:22:19;9.60;;;6.00;;
34892;SDS011;21106;52.240;20.902;2023-07-13T21:27:27;9.70;;;6.20;;
34892;SDS011;21106;52.240;20.902;2023-07-13T21:32:34;9.00;;;5.80;;
34892;SDS011;21106;52.240;20.902;2023-07-13T21:37:40;9.90;;;6.30;;
34892;SDS011;21106;52.240;20.902;2023-07-13T21:42:47;9.10;;;5.80;;
34892;SDS011;21106;52.240;20.902;2023-07-13T21:47:54;10.90;;;6.30;;
34892;SDS011;21106;52.240;20.902;2023-07-13T21:53:01;9.80;;;5.90;;
34892;SDS011;21106;52.240;20.902;2023-07-13T21:58:19;8.00;;;6.20;;
34892;SDS011;21106;52.240;20.902;2023-07-13T22:03:35;9.00;;;6.10;;
34892;SDS011;21106;52.240;20.902;2023-07-13T22:08:42;9.70;;;5.80;;
34892;SDS011;21106;52.240;20.902;2023-07-13T22:13:49;7.80;;;6.00;;
34892;SDS011;21106;52.240;20.902;2023-07-13T22:18:58;9.40;;;6.40;;
34892;SDS011;21106;52.240;20.902;2023-07-13T22:24:12;10.50;;;6.60;;
34892;SDS011;21106;52.240;20.902;2023-07-13T22:29:24;12.10;;;6.10;;
34892;SDS011;21106;52.240;20.902;2023-07-13T22:34:35;11.30;;;7.60;;
34892;SDS011;21106;52.240;20.902;2023-07-13T22:39:42;13.20;;;6.40;;
34892;SDS011;21106;52.240;20.902;2023-07-13T22:44:50;9.00;;;7.20;;
34892;SDS011;21106;52.240;20.902;2023-07-13T22:49:56;11.30;;;7.50;;
34892;SDS011;21106;52.240;20.902;2023-07-13T22:55:08;12.80;;;8.20;;
34892;SDS011;21106;52.240;20.902;2023-07-13T23:00:17;11.70;;;7.80;;
34892;SDS011;21106;52.240;20.902;2023-07-13T23:05:24;12.80;;;7.30;;
34892;SDS011;21106;52.240;20.902;2023-07-13T23:10:32;10.60;;;7.90;;
34892;SDS011;21106;52.240;20.902;2023-07-13T23:15:39;10.90;;;7.50;;
34892;SDS011;21106;52.240;20.902;2023-07-13T23:20:45;16.00;;;8.90;;
34892;SDS011;21106;52.240;20.902;2023-07-13T23:25:52;9.70;;;8.10;;
34892;SDS011;21106;52.240;20.902;2023-07-13T23:30:58;11.80;;;8.80;;
34892;SDS011;21106;52.240;20.902;2023-07-13T23:36:05;16.40;;;10.00;;
34892;SDS011;21106;52.240;20.902;2023-07-13T23:41:20;14.50;;;8.80;;
34892;SDS011;21106;52.240;20.902;2023-07-13T23:46:37;10.10;;;7.30;;
34892;SDS011;21106;52.240;20.902;2023-07-13T23:51:49;11.30;;;8.00;;
34892;SDS011;21106;52.240;20.902;2023-07-13T23:56:57;12.40;;;8.20;;
